createdAt,value
2023-03-31T00:02:09.000Z,979.08
2023-03-31T00:07:03.000Z,978.90
2023-03-31T00:11:57.000Z,978.73
2023-03-31T00:16:51.000Z,978.71
2023-03-31T00:21:45.000Z,978.63
2023-03-31T00:26:38.000Z,978.65
2023-03-31T00:31:33.000Z,978.47
2023-03-31T00:36:25.000Z,978.41
2023-03-31T00:41:19.000Z,978.32
2023-03-31T00:46:11.000Z,978.13
2023-03-31T00:51:06.000Z,978.10
2023-03-31T00:55:59.000Z,978.06
2023-03-31T01:00:52.000Z,978.03
2023-03-31T01:05:44.000Z,977.89
2023-03-31T01:10:36.000Z,977.79
2023-03-31T01:15:32.000Z,977.76
2023-03-31T01:20:25.000Z,977.63
2023-03-31T01:25:19.000Z,977.60
2023-03-31T01:30:13.000Z,977.49
2023-03-31T01:35:06.000Z,977.40
2023-03-31T01:40:00.000Z,977.31
2023-03-31T01:44:54.000Z,977.05
2023-03-31T01:49:48.000Z,976.97
2023-03-31T01:54:41.000Z,976.87
2023-03-31T01:59:34.000Z,976.79
2023-03-31T02:04:28.000Z,976.73
2023-03-31T02:09:25.000Z,976.82
2023-03-31T02:14:14.000Z,976.72
2023-03-31T02:19:07.000Z,976.52
2023-03-31T02:24:01.000Z,976.38
2023-03-31T02:28:55.000Z,976.23
2023-03-31T02:33:49.000Z,975.97
2023-03-31T02:38:43.000Z,975.90
2023-03-31T02:43:37.000Z,975.69
2023-03-31T02:48:31.000Z,975.39
2023-03-31T02:53:26.000Z,975.23
2023-03-31T02:58:19.000Z,975.34
2023-03-31T03:03:13.000Z,975.14
2023-03-31T03:08:07.000Z,974.75
2023-03-31T03:13:01.000Z,974.74
2023-03-31T03:17:52.000Z,974.71
2023-03-31T03:22:46.000Z,974.79
2023-03-31T03:27:40.000Z,974.72
2023-03-31T03:32:35.000Z,974.51
2023-03-31T03:37:31.000Z,974.25
2023-03-31T03:42:22.000Z,974.07
2023-03-31T03:47:16.000Z,974.28
2023-03-31T03:52:10.000Z,974.13
2023-03-31T03:57:04.000Z,974.15
2023-03-31T04:01:58.000Z,974.19
2023-03-31T04:06:51.000Z,974.22
2023-03-31T04:11:45.000Z,974.07
2023-03-31T04:16:39.000Z,974.04
2023-03-31T04:21:34.000Z,974.00
2023-03-31T04:26:28.000Z,973.84
2023-03-31T04:31:22.000Z,973.79
2023-03-31T04:36:16.000Z,973.72
2023-03-31T04:41:09.000Z,973.60
2023-03-31T04:46:05.000Z,973.42
2023-03-31T04:50:54.000Z,973.26
2023-03-31T04:55:48.000Z,973.22
2023-03-31T05:00:42.000Z,973.09
2023-03-31T05:05:36.000Z,973.16
2023-03-31T05:10:30.000Z,973.24
2023-03-31T05:15:24.000Z,973.20
2023-03-31T05:20:18.000Z,973.19
2023-03-31T05:25:11.000Z,973.18
2023-03-31T05:30:05.000Z,973.14
2023-03-31T05:34:56.000Z,973.00
2023-03-31T05:39:50.000Z,972.97
2023-03-31T05:44:44.000Z,972.83
2023-03-31T05:49:38.000Z,972.71
2023-03-31T05:54:33.000Z,972.62
2023-03-31T05:59:27.000Z,972.57
2023-03-31T06:04:18.000Z,972.61
2023-03-31T06:09:13.000Z,972.40
2023-03-31T06:14:05.000Z,972.32
2023-03-31T06:18:57.000Z,972.19
2023-03-31T06:23:51.000Z,971.92
2023-03-31T06:28:45.000Z,971.71
2023-03-31T06:33:39.000Z,971.57
2023-03-31T06:38:33.000Z,971.51
2023-03-31T06:43:27.000Z,971.60
2023-03-31T06:48:22.000Z,971.45
2023-03-31T06:53:15.000Z,971.39
2023-03-31T06:58:09.000Z,971.32
2023-03-31T07:03:02.000Z,971.26
2023-03-31T07:07:55.000Z,971.18
2023-03-31T07:12:50.000Z,971.24
2023-03-31T07:17:44.000Z,971.27
2023-03-31T07:22:41.000Z,971.16
2023-03-31T07:27:31.000Z,970.92
2023-03-31T07:32:26.000Z,970.80
2023-03-31T07:37:20.000Z,970.82
2023-03-31T07:42:15.000Z,970.81
2023-03-31T07:47:06.000Z,970.70
2023-03-31T07:52:00.000Z,970.80
2023-03-31T07:56:53.000Z,970.74
2023-03-31T08:01:48.000Z,970.71
2023-03-31T08:06:42.000Z,970.66
2023-03-31T08:11:36.000Z,970.88
2023-03-31T08:16:31.000Z,970.77
2023-03-31T08:21:25.000Z,970.73
2023-03-31T08:26:19.000Z,970.69
2023-03-31T08:31:12.000Z,970.74
2023-03-31T08:36:06.000Z,970.59
2023-03-31T08:41:01.000Z,970.61
2023-03-31T08:46:00.000Z,970.46
2023-03-31T08:50:47.000Z,970.48
2023-03-31T08:55:45.000Z,970.64
2023-03-31T09:00:35.000Z,970.38
2023-03-31T09:05:30.000Z,970.50
2023-03-31T09:10:27.000Z,970.47
2023-03-31T09:15:18.000Z,970.40
2023-03-31T09:20:17.000Z,970.32
2023-03-31T09:25:06.000Z,970.36
2023-03-31T09:30:00.000Z,970.27
2023-03-31T09:34:53.000Z,970.17
2023-03-31T09:39:46.000Z,970.14
2023-03-31T09:44:40.000Z,970.00
2023-03-31T09:49:34.000Z,969.91
2023-03-31T09:54:29.000Z,969.95
2023-03-31T09:59:24.000Z,969.85
2023-03-31T10:04:17.000Z,969.82
2023-03-31T10:09:11.000Z,969.98
2023-03-31T10:14:05.000Z,969.86
2023-03-31T10:18:56.000Z,969.81
2023-03-31T10:23:49.000Z,969.73
2023-03-31T10:28:43.000Z,969.80
2023-03-31T10:33:35.000Z,969.82
2023-03-31T10:38:28.000Z,969.62
2023-03-31T10:43:23.000Z,969.53
2023-03-31T10:48:18.000Z,969.55
2023-03-31T10:53:11.000Z,969.44
2023-03-31T10:58:11.000Z,969.46
2023-03-31T11:02:58.000Z,969.51
2023-03-31T11:07:52.000Z,969.63
2023-03-31T11:12:46.000Z,969.48
2023-03-31T11:17:39.000Z,969.52
2023-03-31T11:22:33.000Z,969.55
2023-03-31T11:27:28.000Z,969.47
2023-03-31T11:32:22.000Z,969.25
2023-03-31T11:37:16.000Z,969.34
2023-03-31T11:42:10.000Z,969.28
2023-03-31T11:47:06.000Z,969.32
2023-03-31T11:52:00.000Z,969.30
2023-03-31T11:56:52.000Z,969.40
2023-03-31T12:01:46.000Z,969.16
2023-03-31T12:06:40.000Z,969.14
2023-03-31T12:11:34.000Z,969.16
2023-03-31T12:16:29.000Z,969.23
2023-03-31T12:21:22.000Z,969.03
2023-03-31T12:26:17.000Z,968.85
2023-03-31T12:31:12.000Z,968.79
2023-03-31T12:36:07.000Z,968.79
2023-03-31T12:41:03.000Z,968.59
2023-03-31T12:45:58.000Z,968.52
2023-03-31T12:50:52.000Z,968.37
2023-03-31T12:55:45.000Z,968.32
2023-03-31T13:00:39.000Z,968.22
2023-03-31T13:05:33.000Z,968.28
2023-03-31T13:10:29.000Z,968.27
2023-03-31T13:15:24.000Z,968.36
2023-03-31T13:20:18.000Z,968.23
2023-03-31T13:25:13.000Z,968.31
2023-03-31T13:30:06.000Z,968.05
2023-03-31T13:35:02.000Z,968.10
2023-03-31T13:39:52.000Z,968.08
2023-03-31T13:44:46.000Z,968.20
2023-03-31T13:49:39.000Z,967.96
2023-03-31T13:54:33.000Z,968.20
2023-03-31T13:59:27.000Z,968.09
2023-03-31T14:04:21.000Z,968.19
2023-03-31T14:09:15.000Z,968.23
2023-03-31T14:14:08.000Z,968.40
2023-03-31T14:19:02.000Z,968.06
2023-03-31T14:23:56.000Z,968.06
2023-03-31T14:28:49.000Z,968.28
2023-03-31T14:33:43.000Z,968.30
2023-03-31T14:38:37.000Z,968.04
2023-03-31T14:43:31.000Z,968.23
2023-03-31T14:48:25.000Z,968.15
2023-03-31T14:53:21.000Z,968.11
2023-03-31T14:58:14.000Z,968.17
2023-03-31T15:03:09.000Z,968.12
2023-03-31T15:08:01.000Z,968.06
2023-03-31T15:12:56.000Z,968.11
2023-03-31T15:17:51.000Z,968.16
2023-03-31T15:22:44.000Z,968.04
2023-03-31T15:27:38.000Z,968.16
2023-03-31T15:32:31.000Z,968.00
2023-03-31T15:37:25.000Z,968.05
2023-03-31T15:42:18.000Z,968.12
2023-03-31T15:47:11.000Z,968.12
2023-03-31T15:52:04.000Z,968.07
2023-03-31T15:56:58.000Z,968.13
2023-03-31T16:01:53.000Z,968.14
2023-03-31T16:06:45.000Z,968.07
2023-03-31T16:11:40.000Z,968.06
2023-03-31T16:16:33.000Z,968.13
2023-03-31T16:21:26.000Z,968.00
2023-03-31T16:26:21.000Z,967.94
2023-03-31T16:31:15.000Z,968.00
2023-03-31T16:36:09.000Z,968.00
2023-03-31T16:41:09.000Z,968.06
2023-03-31T16:46:00.000Z,968.03
2023-03-31T16:50:52.000Z,968.00
2023-03-31T16:55:45.000Z,968.13
2023-03-31T17:00:39.000Z,968.03
2023-03-31T17:05:33.000Z,968.13
2023-03-31T17:10:28.000Z,968.14
2023-03-31T17:15:22.000Z,968.26
2023-03-31T17:20:13.000Z,968.25
2023-03-31T17:25:08.000Z,968.37
2023-03-31T17:30:01.000Z,968.44
2023-03-31T17:34:56.000Z,968.47
2023-03-31T17:39:50.000Z,968.41
2023-03-31T17:44:43.000Z,968.43
2023-03-31T17:49:38.000Z,968.32
2023-03-31T17:54:32.000Z,968.27
2023-03-31T17:59:26.000Z,968.28
2023-03-31T18:04:19.000Z,968.27
2023-03-31T18:09:13.000Z,968.39
2023-03-31T18:14:07.000Z,968.47
2023-03-31T18:19:01.000Z,968.51
2023-03-31T18:23:55.000Z,968.37
2023-03-31T18:28:49.000Z,968.52
2023-03-31T18:33:40.000Z,968.46
2023-03-31T18:38:35.000Z,968.52
2023-03-31T18:43:29.000Z,968.56
2023-03-31T18:48:23.000Z,968.52
2023-03-31T18:53:16.000Z,968.60
2023-03-31T18:58:10.000Z,968.56
2023-03-31T19:03:05.000Z,968.56
2023-03-31T19:07:59.000Z,968.71
2023-03-31T19:12:51.000Z,968.89
2023-03-31T19:17:45.000Z,968.83
2023-03-31T19:22:39.000Z,968.78
2023-03-31T19:27:33.000Z,968.79
2023-03-31T19:32:27.000Z,968.66
2023-03-31T19:37:21.000Z,968.70
2023-03-31T19:42:15.000Z,968.68
2023-03-31T19:47:09.000Z,968.70
2023-03-31T19:52:03.000Z,968.71
2023-03-31T19:56:57.000Z,968.64
2023-03-31T20:01:51.000Z,968.80
2023-03-31T20:06:45.000Z,968.80
2023-03-31T20:11:40.000Z,968.76
2023-03-31T20:16:34.000Z,968.64
2023-03-31T20:21:28.000Z,968.66
2023-03-31T20:26:23.000Z,968.70
2023-03-31T20:31:16.000Z,968.78
2023-03-31T20:36:10.000Z,968.73
2023-03-31T20:41:04.000Z,968.61
2023-03-31T20:45:58.000Z,968.55
2023-03-31T20:50:52.000Z,968.70
2023-03-31T20:55:47.000Z,968.65
2023-03-31T21:00:40.000Z,968.79
2023-03-31T21:05:34.000Z,968.79
2023-03-31T21:10:29.000Z,968.78
2023-03-31T21:15:23.000Z,968.80
2023-03-31T21:20:17.000Z,968.69
2023-03-31T21:25:11.000Z,968.64
2023-03-31T21:34:49.000Z,968.76
2023-03-31T21:39:42.000Z,968.59
2023-03-31T21:44:37.000Z,968.49
2023-03-31T21:49:30.000Z,968.58
2023-03-31T21:54:24.000Z,968.50
2023-03-31T21:59:18.000Z,968.57
2023-03-31T22:04:12.000Z,968.45
2023-03-31T22:09:06.000Z,968.55
2023-03-31T22:13:58.000Z,968.55
2023-03-31T22:18:51.000Z,968.58
2023-03-31T22:23:44.000Z,968.50
2023-03-31T22:28:38.000Z,968.57
2023-03-31T22:33:30.000Z,968.71
2023-03-31T22:38:25.000Z,968.62
2023-03-31T22:43:19.000Z,968.67
2023-03-31T22:48:11.000Z,968.73
2023-03-31T22:53:05.000Z,968.74
2023-03-31T22:57:57.000Z,968.64
2023-03-31T23:02:51.000Z,968.69
2023-03-31T23:07:46.000Z,968.78
2023-03-31T23:12:41.000Z,968.67
2023-03-31T23:17:35.000Z,968.72
2023-03-31T23:22:29.000Z,968.56
2023-03-31T23:27:24.000Z,968.62
2023-03-31T23:32:18.000Z,968.65
2023-03-31T23:37:12.000Z,968.66
2023-03-31T23:42:05.000Z,968.73
2023-03-31T23:46:59.000Z,968.70
2023-03-31T23:51:52.000Z,968.60
2023-03-31T23:56:43.000Z,968.62
